createdAt,value
2023-04-06T00:00:17.002Z,17.30
2023-04-06T00:05:10.668Z,18.07
2023-04-06T00:10:05.191Z,17.53
2023-04-06T00:14:59.934Z,16.53
2023-04-06T00:19:56.900Z,16.87
2023-04-06T00:24:50.510Z,19.80
2023-04-06T00:29:43.804Z,17.43
2023-04-06T00:34:38.505Z,17.53
2023-04-06T00:39:32.697Z,18.03
2023-04-06T00:44:26.755Z,18.87
2023-04-06T00:49:20.819Z,15.53
2023-04-06T00:54:15.723Z,16.67
2023-04-06T00:59:10.307Z,16.07
2023-04-06T01:04:04.761Z,16.60
2023-04-06T01:09:05.491Z,15.97
2023-04-06T01:14:00.509Z,15.67
2023-04-06T01:19:15.124Z,16.47
2023-04-06T01:24:14.850Z,16.60
2023-04-06T01:29:28.404Z,15.00
2023-04-06T01:34:22.847Z,16.17
2023-04-06T01:39:18.880Z,16.87
2023-04-06T01:44:12.946Z,16.17
2023-04-06T01:49:08.309Z,15.73
2023-04-06T01:54:04.568Z,16.60
2023-04-06T01:59:25.814Z,16.27
2023-04-06T02:04:20.643Z,15.50
2023-04-06T02:09:20.188Z,16.20
2023-04-06T02:14:13.883Z,14.77
2023-04-06T02:19:15.079Z,14.15
2023-04-06T02:24:10.587Z,15.93
2023-04-06T02:29:04.261Z,14.23
2023-04-06T02:33:59.890Z,15.17
2023-04-06T02:38:56.488Z,18.47
2023-04-06T02:43:50.207Z,15.77
2023-04-06T02:48:54.131Z,15.40
2023-04-06T02:53:48.330Z,16.47
2023-04-06T02:58:44.220Z,17.10
2023-04-06T03:03:37.979Z,17.83
2023-04-06T03:08:36.771Z,19.30
2023-04-06T03:13:30.170Z,16.40
2023-04-06T03:18:27.456Z,15.47
2023-04-06T03:23:23.057Z,16.60
2023-04-06T03:28:21.182Z,16.57
2023-04-06T03:38:21.907Z,16.77
2023-04-06T03:43:24.617Z,19.73
2023-04-06T03:48:18.268Z,19.97
2023-04-06T03:53:11.634Z,21.60
2023-04-06T03:58:06.494Z,19.97
2023-04-06T04:03:00.101Z,16.50
2023-04-06T04:07:53.630Z,19.33
2023-04-06T04:12:50.418Z,17.07
2023-04-06T04:17:48.039Z,19.07
2023-04-06T04:22:41.564Z,26.60
2023-04-06T04:27:35.530Z,22.97
2023-04-06T04:32:28.951Z,19.53
2023-04-06T04:37:26.624Z,20.67
2023-04-06T04:42:23.114Z,23.00
2023-04-06T04:47:19.637Z,27.10
2023-04-06T04:52:14.666Z,20.13
2023-04-06T04:57:23.938Z,22.80
2023-04-06T05:02:17.506Z,20.53
2023-04-06T05:07:26.468Z,23.27
2023-04-06T05:12:24.356Z,25.13
2023-04-06T05:17:28.497Z,23.43
2023-04-06T05:22:24.901Z,26.43
2023-04-06T05:27:29.806Z,24.97
2023-04-06T05:32:25.875Z,23.93
2023-04-06T05:37:20.618Z,24.60
2023-04-06T05:42:14.212Z,22.77
2023-04-06T05:47:20.272Z,26.00
2023-04-06T05:52:22.227Z,23.10
2023-04-06T05:57:17.565Z,22.97
2023-04-06T06:02:12.113Z,22.07
2023-04-06T06:07:10.859Z,22.90
2023-04-06T06:12:13.220Z,20.80
2023-04-06T06:17:08.295Z,23.17
2023-04-06T06:22:03.639Z,26.53
2023-04-06T06:26:59.656Z,25.47
2023-04-06T06:31:55.580Z,23.03
2023-04-06T06:36:52.721Z,21.50
2023-04-06T06:41:46.957Z,22.73
2023-04-06T06:46:42.056Z,19.33
2023-04-06T06:51:35.494Z,20.63
2023-04-06T06:56:29.068Z,20.77
2023-04-06T07:01:22.969Z,20.83
2023-04-06T07:06:25.326Z,20.50
2023-04-06T07:11:18.901Z,22.37
2023-04-06T07:16:12.427Z,22.97
2023-04-06T07:21:09.434Z,17.90
2023-04-06T07:26:08.795Z,31.17
2023-04-06T07:31:17.008Z,20.77
2023-04-06T07:36:11.220Z,21.73
2023-04-06T07:41:06.282Z,20.55
2023-04-06T07:46:01.139Z,19.17
2023-04-06T07:50:54.707Z,19.80
2023-04-06T07:55:48.651Z,18.08
2023-04-06T08:00:43.564Z,18.77
2023-04-06T08:05:36.898Z,18.73
2023-04-06T08:10:30.472Z,18.05
2023-04-06T08:15:23.756Z,18.30
2023-04-06T08:20:18.747Z,17.65
2023-04-06T08:25:12.223Z,21.00
2023-04-06T08:30:05.984Z,19.45
2023-04-06T08:34:59.639Z,20.58
2023-04-06T08:39:54.457Z,19.20
2023-04-06T08:44:48.683Z,20.08
2023-04-06T08:49:42.602Z,17.35
2023-04-06T08:54:35.949Z,19.35
2023-04-06T08:59:31.431Z,19.35
2023-04-06T09:04:26.857Z,20.38
2023-04-06T09:09:22.844Z,18.55
2023-04-06T09:14:18.879Z,21.08
2023-04-06T09:19:14.373Z,19.55
2023-04-06T09:24:09.754Z,16.17
2023-04-06T09:29:06.333Z,16.00
2023-04-06T09:34:00.050Z,16.95
2023-04-06T09:38:59.620Z,17.08
2023-04-06T09:43:53.987Z,19.57
2023-04-06T09:48:47.755Z,18.20
2023-04-06T09:53:44.878Z,17.15
2023-04-06T09:58:45.730Z,16.63
2023-04-06T10:03:48.136Z,21.45
2023-04-06T10:08:43.438Z,17.80
2023-04-06T10:13:37.037Z,22.45
2023-04-06T10:18:32.068Z,18.55
2023-04-06T10:23:29.603Z,17.08
2023-04-06T10:28:23.053Z,24.50
2023-04-06T10:33:17.259Z,15.90
2023-04-06T10:38:12.803Z,20.13
2023-04-06T10:43:13.883Z,17.70
2023-04-06T10:48:17.208Z,16.83
2023-04-06T10:53:11.965Z,15.25
2023-04-06T10:58:08.619Z,15.68
2023-04-06T11:03:02.949Z,18.20
2023-04-06T11:07:59.079Z,21.60
2023-04-06T11:12:57.488Z,13.85
2023-04-06T11:17:51.557Z,15.32
2023-04-06T11:22:54.489Z,14.55
2023-04-06T11:27:48.576Z,15.98
2023-04-06T11:32:44.627Z,16.45
2023-04-06T11:37:38.297Z,13.13
2023-04-06T11:42:32.875Z,16.35
2023-04-06T11:47:31.321Z,17.92
2023-04-06T11:52:30.699Z,15.10
2023-04-06T11:57:25.632Z,14.70
2023-04-06T12:02:19.077Z,14.27
2023-04-06T12:07:14.500Z,10.35
2023-04-06T12:12:09.478Z,12.30
2023-04-06T12:17:02.859Z,12.73
2023-04-06T12:21:56.301Z,11.23
2023-04-06T12:26:51.682Z,11.40
2023-04-06T12:31:50.159Z,12.73
2023-04-06T12:36:45.014Z,13.43
2023-04-06T12:41:38.338Z,15.48
2023-04-06T12:46:33.021Z,14.10
2023-04-06T12:51:30.846Z,13.00
2023-04-06T12:56:25.679Z,14.80
2023-04-06T13:01:19.355Z,12.23
2023-04-06T13:06:14.142Z,13.25
2023-04-06T13:11:10.107Z,11.75
2023-04-06T13:16:04.703Z,11.93
2023-04-06T13:20:58.122Z,9.18
2023-04-06T13:25:59.807Z,9.00
2023-04-06T13:30:55.933Z,9.95
2023-04-06T13:35:49.619Z,11.52
2023-04-06T13:40:43.303Z,12.15
2023-04-06T13:45:36.724Z,11.82
2023-04-06T13:50:33.951Z,9.13
2023-04-06T13:55:27.270Z,11.07
2023-04-06T14:00:23.025Z,11.18
2023-04-06T14:05:16.519Z,12.23
2023-04-06T14:10:15.068Z,10.80
2023-04-06T14:15:10.283Z,9.70
2023-04-06T14:20:06.155Z,11.52
2023-04-06T14:24:59.745Z,13.10
2023-04-06T14:29:54.817Z,11.35
2023-04-06T14:34:47.978Z,12.25
2023-04-06T14:39:43.297Z,12.20
2023-04-06T14:44:40.325Z,10.68
2023-04-06T14:49:34.961Z,11.02
2023-04-06T14:54:28.175Z,11.43
2023-04-06T14:59:21.486Z,9.27
2023-04-06T15:04:17.003Z,13.95
2023-04-06T15:09:11.738Z,9.93
2023-04-06T15:14:06.768Z,12.05
2023-04-06T15:19:04.440Z,11.63
2023-04-06T15:23:57.789Z,12.15
2023-04-06T15:28:56.675Z,12.15
2023-04-06T15:33:50.280Z,12.32
2023-04-06T15:38:43.666Z,10.77
2023-04-06T15:43:36.830Z,17.50
2023-04-06T15:48:32.833Z,18.45
2023-04-06T15:53:27.965Z,27.98
2023-04-06T15:58:21.173Z,22.05
2023-04-06T16:03:14.563Z,43.55
2023-04-06T16:08:09.525Z,26.20
2023-04-06T16:13:02.884Z,14.75
2023-04-06T16:17:59.335Z,14.07
2023-04-06T16:22:52.587Z,11.43
2023-04-06T16:27:47.316Z,14.18
2023-04-06T16:32:43.374Z,16.42
2023-04-06T16:37:36.777Z,12.55
2023-04-06T16:42:30.141Z,12.48
2023-04-06T16:47:25.272Z,13.02
2023-04-06T16:52:18.594Z,10.73
2023-04-06T16:57:13.067Z,10.43
2023-04-06T17:02:07.496Z,12.25
2023-04-06T17:07:02.268Z,10.23
2023-04-06T17:11:56.310Z,10.65
2023-04-06T17:16:49.622Z,10.07
2023-04-06T17:21:43.589Z,11.50
2023-04-06T17:26:38.220Z,9.95
2023-04-06T17:31:33.874Z,7.03
2023-04-06T17:36:33.180Z,9.18
2023-04-06T17:41:26.713Z,9.32
2023-04-06T17:46:21.782Z,9.25
2023-04-06T17:51:15.613Z,12.48
2023-04-06T17:56:08.799Z,11.20
2023-04-06T18:01:07.317Z,11.20
2023-04-06T18:06:12.467Z,14.77
2023-04-06T18:11:05.974Z,13.68
2023-04-06T18:16:02.091Z,9.65
2023-04-06T18:20:55.533Z,10.57
2023-04-06T18:25:50.248Z,10.77
2023-04-06T18:30:43.423Z,14.88
2023-04-06T18:35:38.057Z,8.73
2023-04-06T18:40:36.691Z,11.85
2023-04-06T18:45:38.981Z,12.98
2023-04-06T18:50:34.999Z,11.95
2023-04-06T18:55:33.682Z,10.35
2023-04-06T19:00:27.606Z,10.43
2023-04-06T19:05:25.689Z,9.90
2023-04-06T19:10:20.479Z,11.50
2023-04-06T19:15:17.613Z,11.48
2023-04-06T19:20:13.709Z,9.98
2023-04-06T19:25:09.822Z,9.35
2023-04-06T19:30:03.442Z,10.68
2023-04-06T19:34:56.773Z,9.95
2023-04-06T19:39:53.249Z,10.55
2023-04-06T19:44:47.793Z,18.20
2023-04-06T19:49:41.035Z,11.57
2023-04-06T19:54:35.902Z,13.85
2023-04-06T19:59:29.094Z,13.48
2023-04-06T20:04:25.109Z,11.10
2023-04-06T20:09:18.629Z,12.63
2023-04-06T20:14:13.009Z,12.65
2023-04-06T20:19:06.458Z,11.80
2023-04-06T20:24:01.510Z,9.77
2023-04-06T20:28:54.884Z,13.38
2023-04-06T20:33:48.572Z,12.35
2023-04-06T20:38:49.628Z,11.30
2023-04-06T20:43:45.366Z,11.25
2023-04-06T20:48:38.639Z,11.10
2023-04-06T20:53:34.190Z,10.13
2023-04-06T20:58:27.551Z,12.38
2023-04-06T21:03:22.354Z,11.25
2023-04-06T21:08:16.067Z,12.07
2023-04-06T21:13:15.877Z,11.38
2023-04-06T21:18:09.229Z,11.27
2023-04-06T21:23:07.111Z,13.37
2023-04-06T21:28:02.940Z,12.02
2023-04-06T21:33:02.432Z,12.02
2023-04-06T21:37:55.815Z,12.02
2023-04-06T21:42:53.036Z,10.85
2023-04-06T21:47:46.416Z,12.85
2023-04-06T21:52:39.720Z,10.25
2023-04-06T21:57:32.936Z,11.75
2023-04-06T22:02:29.074Z,11.53
2023-04-06T22:07:22.570Z,12.20
2023-04-06T22:12:16.082Z,10.27
2023-04-06T22:17:10.589Z,13.05
2023-04-06T22:22:05.436Z,11.15
2023-04-06T22:27:00.137Z,13.23
2023-04-06T22:31:53.375Z,11.98
2023-04-06T22:36:46.665Z,11.23
2023-04-06T22:41:41.289Z,11.40
2023-04-06T22:46:37.135Z,11.02
2023-04-06T22:51:30.517Z,15.30
2023-04-06T22:56:23.846Z,11.63
2023-04-06T23:01:18.897Z,12.77
2023-04-06T23:06:12.245Z,12.95
2023-04-06T23:11:05.524Z,11.80
2023-04-06T23:15:58.802Z,12.95
2023-04-06T23:20:58.048Z,13.10
2023-04-06T23:25:51.389Z,12.17
2023-04-06T23:30:44.608Z,12.90
2023-04-06T23:35:37.808Z,12.83
2023-04-06T23:40:33.576Z,13.43
2023-04-06T23:45:26.922Z,13.50
2023-04-06T23:50:20.256Z,12.73
2023-04-06T23:55:13.480Z,15.87
